Time;durP1;ratioP1;P1;durP2;ratioP2;P2;SDS_P1;SDS_P2;PMS_P1;PMS_P2;Temp;Humidity;BMP_temperature;BMP_pressure;BME280_temperature;BME280_humidity;BME280_pressure;Samples;Min_cycle;Max_cycle;Signal;HPM_P1;HPM_P2
2022/01/29 00:00:59;;;;;;;;;20.00;17.25;;;;;-147.17;100.00;50442.44;5029890;28;51195;-70
2022/01/29 00:03:25;;;;;;;;;20.25;16.75;;;;;-147.17;100.00;50475.91;5039759;28;50926;-70
2022/01/29 00:05:51;;;;;;;;;22.75;18.25;;;;;-147.17;100.00;50440.47;5034098;28;51811;-70
2022/01/29 00:08:17;;;;;;;;;17.50;16.25;;;;;-147.17;100.00;50466.06;5033159;28;51618;-68
2022/01/29 00:10:44;;;;;;;;;16.00;15.00;;;;;-147.17;100.00;50464.09;5030021;28;51107;-68
2022/01/29 00:13:09;;;;;;;;;23.00;17.75;;;;;-147.17;100.00;50471.97;5049127;28;51007;-69
2022/01/29 00:15:35;;;;;;;;;17.00;16.25;;;;;-147.17;100.00;50515.28;5031111;28;52025;-69
2022/01/29 00:18:01;;;;;;;;;17.25;16.75;;;;;-147.17;100.00;50436.53;5034410;28;51140;-69
2022/01/29 00:20:26;;;;;;;;;21.50;20.25;;;;;-147.17;100.00;50428.66;5030673;28;51096;-68
2022/01/29 00:22:52;;;;;;;;;17.75;15.75;;;;;-147.17;100.00;50446.38;5035576;28;51293;-70
2022/01/29 00:25:17;;;;;;;;;19.25;15.00;;;;;-147.17;100.00;50438.50;5033817;28;51139;-69
2022/01/29 00:27:43;;;;;;;;;20.75;15.75;;;;;-147.17;100.00;50466.06;5036405;28;51126;-72
2022/01/29 00:30:13;;;;;;;;;15.00;14.50;;;;;-147.17;100.00;50454.25;5032711;28;51181;-71
2022/01/29 00:32:38;;;;;;;;;17.25;15.00;;;;;-147.17;100.00;50438.50;5036676;28;51221;-71
2022/01/29 00:35:05;;;;;;;;;21.50;16.75;;;;;-147.17;100.00;50442.44;5039189;28;51891;-72
2022/01/29 00:37:30;;;;;;;;;14.25;13.50;;;;;-147.17;100.00;50458.19;5037937;28;51350;-71
2022/01/29 00:39:55;;;;;;;;;15.00;14.00;;;;;-147.17;100.00;50436.53;5036557;28;51433;-71
2022/01/29 00:42:21;;;;;;;;;14.25;13.50;;;;;-147.17;100.00;50452.28;5036664;28;51158;-70
2022/01/29 00:44:47;;;;;;;;;14.25;11.50;;;;;-147.17;100.00;50438.50;5026594;28;50943;-70
2022/01/29 00:47:13;;;;;;;;;14.00;12.75;;;;;-147.17;100.00;50418.81;5024337;28;51131;-71
2022/01/29 00:49:39;;;;;;;;;17.00;15.50;;;;;-147.17;100.00;50438.50;5038311;28;51268;-71
2022/01/29 00:52:04;;;;;;;;;15.75;14.75;;;;;-147.17;100.00;50438.50;5036312;28;50920;-70
2022/01/29 00:54:31;;;;;;;;;15.25;15.25;;;;;-147.17;100.00;50434.56;5036058;28;51935;-70
2022/01/29 00:56:56;;;;;;;;;17.00;16.00;;;;;-147.17;100.00;50430.63;5023931;28;51038;-71
2022/01/29 00:59:22;;;;;;;;;15.25;14.50;;;;;-147.17;100.00;50426.69;5022528;28;50996;-71
2022/01/29 01:01:48;;;;;;;;;19.75;15.75;;;;;-147.17;100.00;50401.09;5029673;28;50997;-71
2022/01/29 01:04:13;;;;;;;;;17.50;16.00;;;;;-147.17;100.00;50442.44;5036426;28;51156;-70
2022/01/29 01:06:40;;;;;;;;;18.00;18.00;;;;;-147.17;100.00;50434.56;5021761;28;51051;-70
2022/01/29 01:09:05;;;;;;;;;15.00;14.75;;;;;-147.17;100.00;50403.06;5044581;28;50974;-69
2022/01/29 01:11:31;;;;;;;;;15.50;15.00;;;;;-147.17;100.00;50426.69;5033808;28;51090;-70
2022/01/29 01:13:56;;;;;;;;;15.25;13.75;;;;;-147.17;100.00;50422.75;5043559;28;51797;-71
2022/01/29 01:16:22;;;;;;;;;13.75;12.00;;;;;-147.17;100.00;50438.50;5038926;28;51065;-71
2022/01/29 01:18:48;;;;;;;;;16.00;14.25;;;;;-147.17;100.00;50418.81;5040708;28;51319;-69
2022/01/29 01:21:13;;;;;;;;;17.00;16.00;;;;;-147.17;100.00;50418.81;5035173;28;51127;-70
2022/01/29 01:23:38;;;;;;;;;13.00;12.25;;;;;-147.17;100.00;50403.06;5026155;28;51711;-70
2022/01/29 01:26:04;;;;;;;;;17.00;15.00;;;;;-147.17;100.00;50401.09;5021157;28;51061;-70
2022/01/29 01:28:30;;;;;;;;;21.00;17.75;;;;;-147.17;100.00;50367.63;5034259;28;51071;-70
2022/01/29 01:30:55;;;;;;;;;20.25;18.75;;;;;-147.17;100.00;50393.22;5027401;28;51121;-71
2022/01/29 01:33:20;;;;;;;;;15.25;12.25;;;;;-147.17;100.00;50369.59;5047024;28;50806;-71
2022/01/29 01:35:50;;;;;;;;;15.50;15.25;;;;;-147.17;100.00;50371.56;5035406;28;51122;-70
2022/01/29 01:40:50;;;;;;;;;16.25;15.50;;;;;-147.17;100.00;50373.53;5025034;28;51125;-70
2022/01/29 01:43:15;;;;;;;;;18.50;18.50;;;;;-147.17;100.00;50383.38;5034241;28;52881;-70
2022/01/29 01:45:41;;;;;;;;;15.00;14.00;;;;;-147.17;100.00;50340.06;5033975;28;51050;-71
2022/01/29 01:48:07;;;;;;;;;15.50;15.50;;;;;-147.17;100.00;50385.34;5030298;28;51136;-71
2022/01/29 01:50:34;;;;;;;;;18.50;16.50;;;;;-147.17;100.00;50324.31;5043940;28;50860;-71
2022/01/29 01:53:00;;;;;;;;;21.50;20.00;;;;;-147.17;100.00;50361.72;5028902;28;51906;-70
2022/01/29 01:55:25;;;;;;;;;16.25;15.50;;;;;-147.17;100.00;50371.56;5026277;28;50939;-70
2022/01/29 01:57:52;;;;;;;;;24.50;22.00;;;;;-147.17;100.00;50342.03;5042728;28;50923;-70
2022/01/29 02:00:18;;;;;;;;;16.75;16.00;;;;;-147.17;100.00;50344.00;5041113;28;51009;-70
2022/01/29 02:02:44;;;;;;;;;15.00;14.25;;;;;-147.17;100.00;50281.03;5035268;28;51215;-70
2022/01/29 02:05:10;;;;;;;;;15.75;15.25;;;;;-147.17;100.00;50296.78;5033903;28;51068;-70
2022/01/29 02:07:36;;;;;;;;;15.75;15.00;;;;;-147.17;100.00;50300.72;5032586;28;51067;-69
2022/01/29 02:10:03;;;;;;;;;16.75;15.25;;;;;-147.17;100.00;50261.34;5027511;28;51177;-68
2022/01/29 02:12:32;;;;;;;;;19.00;17.75;;;;;-147.17;100.00;50306.63;5018055;28;52539;-68
2022/01/29 02:15:02;;;;;;;;;18.75;18.00;;;;;-147.17;100.00;50330.22;5026534;28;51244;-68
2022/01/29 02:17:27;;;;;;;;;15.00;14.75;;;;;-147.17;100.00;50286.94;5030041;28;51007;-68
2022/01/29 02:19:54;;;;;;;;;16.00;15.75;;;;;-147.17;100.00;50316.44;5017888;28;51100;-68
2022/01/29 02:22:20;;;;;;;;;17.75;16.75;;;;;-147.17;100.00;50302.69;5014950;28;51158;-68
2022/01/29 02:24:45;;;;;;;;;13.75;13.25;;;;;-147.17;100.00;50300.72;5024052;28;50909;-69
2022/01/29 02:27:11;;;;;;;;;19.00;15.75;;;;;-147.17;100.00;50312.53;5018736;28;51657;-69
2022/01/29 02:29:36;;;;;;;;;16.50;16.50;;;;;-147.17;100.00;50290.88;5020215;28;51141;-69
2022/01/29 02:32:02;;;;;;;;;15.00;14.50;;;;;-147.17;100.00;50336.13;5030362;28;51431;-69
2022/01/29 02:34:30;;;;;;;;;16.00;14.75;;;;;-147.17;100.00;50284.97;5030233;28;51287;-70
2022/01/29 02:36:56;;;;;;;;;14.25;13.00;;;;;-147.17;100.00;50312.53;5027824;28;51154;-69
2022/01/29 02:39:22;;;;;;;;;16.00;14.50;;;;;-147.17;100.00;50314.47;5012904;28;51276;-68
2022/01/29 02:41:48;;;;;;;;;17.75;16.75;;;;;-147.17;100.00;50288.91;5027330;28;52348;-69
2022/01/29 02:44:20;;;;;;;;;12.75;12.75;;;;;-147.17;100.00;50306.63;5031303;28;50869;-68
2022/01/29 02:49:21;;;;;;;;;14.50;13.75;;;;;-147.17;100.00;50328.25;5024720;28;51240;-68
2022/01/29 02:51:48;;;;;;;;;15.75;14.00;;;;;-147.17;100.00;50310.56;5023945;28;51194;-68
2022/01/29 02:54:14;;;;;;;;;19.50;17.00;;;;;-147.17;100.00;50284.97;5020757;28;50948;-68
2022/01/29 02:56:40;;;;;;;;;14.75;14.00;;;;;-147.17;100.00;50312.53;5028783;28;51123;-68
2022/01/29 02:59:06;;;;;;;;;11.25;10.00;;;;;-147.17;100.00;50304.66;5031345;28;51001;-68
2022/01/29 03:01:31;;;;;;;;;14.00;12.25;;;;;-147.17;100.00;50308.59;5029889;28;51854;-68
2022/01/29 03:03:56;;;;;;;;;12.50;12.50;;;;;-147.17;100.00;50298.75;5015086;28;51283;-68
2022/01/29 03:06:22;;;;;;;;;13.00;12.25;;;;;-147.17;100.00;50294.81;5014735;28;51092;-68
2022/01/29 03:08:47;;;;;;;;;11.00;11.00;;;;;-147.17;100.00;50318.41;5034235;28;51049;-69
2022/01/29 03:11:14;;;;;;;;;11.75;11.00;;;;;-147.17;100.00;50332.19;5032256;28;51708;-69
2022/01/29 03:13:40;;;;;;;;;17.75;14.00;;;;;-147.17;100.00;50300.72;5016627;28;51353;-68
2022/01/29 03:16:05;;;;;;;;;15.25;12.75;;;;;-147.17;100.00;50332.19;5029544;28;51038;-68
2022/01/29 03:18:30;;;;;;;;;15.25;13.50;;;;;-147.17;100.00;50318.41;5031286;28;51119;-68
2022/01/29 03:20:56;;;;;;;;;20.00;16.50;;;;;-147.17;100.00;50316.44;5034510;28;53101;-69
2022/01/29 03:23:21;;;;;;;;;13.25;12.25;;;;;-147.17;100.00;50308.59;5032035;28;51119;-68
2022/01/29 03:25:47;;;;;;;;;17.00;15.75;;;;;-147.17;100.00;50336.13;5035560;28;51105;-68
2022/01/29 03:28:12;;;;;;;;;10.00;9.25;;;;;-147.17;100.00;50296.78;5026639;28;50939;-69
2022/01/29 03:30:37;;;;;;;;;11.00;11.00;;;;;-147.17;100.00;50340.06;5027394;28;51189;-68
2022/01/29 03:33:03;;;;;;;;;16.00;14.25;;;;;-147.17;100.00;50332.19;5028794;28;51092;-69
2022/01/29 03:35:28;;;;;;;;;11.00;10.00;;;;;-147.17;100.00;50324.31;5015653;28;51217;-69
2022/01/29 03:37:54;;;;;;;;;10.25;10.25;;;;;-147.17;100.00;50342.03;5015325;28;50934;-69
2022/01/29 03:40:19;;;;;;;;;12.50;11.50;;;;;-147.17;100.00;50336.13;5024057;28;52163;-69
2022/01/29 03:43:00;;;;;;;;;11.75;11.00;;;;;-147.17;100.00;50320.38;5024389;28;51075;-69
2022/01/29 03:45:25;;;;;;;;;14.00;13.25;;;;;-147.17;100.00;50320.38;5034266;28;51190;-68
2022/01/29 03:47:51;;;;;;;;;9.50;9.00;;;;;-147.17;100.00;50302.69;5033337;28;51122;-68
2022/01/29 03:50:16;;;;;;;;;12.75;12.75;;;;;-147.17;100.00;50316.44;5029264;28;52243;-69
2022/01/29 03:52:41;;;;;;;;;9.00;9.00;;;;;-147.17;100.00;50310.56;5016756;28;51043;-69
2022/01/29 03:55:07;;;;;;;;;13.25;10.50;;;;;-147.17;100.00;50300.72;5013884;28;51240;-69
2022/01/29 03:57:33;;;;;;;;;10.00;10.00;;;;;-147.17;100.00;50318.41;5022809;28;51234;-69
2022/01/29 03:59:58;;;;;;;;;11.00;11.00;;;;;-147.17;100.00;50328.25;5031383;28;52323;-68
2022/01/29 04:02:24;;;;;;;;;14.25;11.25;;;;;-147.17;100.00;50294.81;5031675;28;51144;-69
2022/01/29 04:04:49;;;;;;;;;13.25;10.75;;;;;-147.17;100.00;50316.44;5026890;28;51299;-69
2022/01/29 04:07:14;;;;;;;;;14.00;11.00;;;;;-147.17;100.00;50265.28;5025143;28;51585;-68
2022/01/29 04:09:47;;;;;;;;;9.00;8.00;;;;;-147.17;100.00;50322.34;5022051;28;52442;-69
2022/01/29 04:12:13;;;;;;;;;10.75;10.50;;;;;-147.17;100.00;50308.59;5020143;28;51009;-69
2022/01/29 04:14:39;;;;;;;;;14.00;13.75;;;;;-147.17;100.00;50269.22;5031718;28;51005;-68
2022/01/29 04:17:05;;;;;;;;;12.00;11.00;;;;;-147.17;100.00;50296.78;5018416;28;51099;-68
2022/01/29 04:19:31;;;;;;;;;12.75;12.75;;;;;-147.17;100.00;50265.28;5031152;28;51682;-68
2022/01/29 04:21:56;;;;;;;;;11.50;10.25;;;;;-147.17;100.00;50300.72;5028577;28;51149;-69
2022/01/29 04:24:22;;;;;;;;;11.75;11.00;;;;;-147.17;100.00;50300.72;5034582;28;51053;-69
2022/01/29 04:26:47;;;;;;;;;10.25;10.00;;;;;-147.17;100.00;50308.59;5033941;28;50928;-69
2022/01/29 04:29:12;;;;;;;;;13.00;11.00;;;;;-147.17;100.00;50306.63;5030483;28;51695;-68
2022/01/29 04:32:18;;;;;;;;;11.00;10.75;;;;;-147.17;100.00;50284.97;5019616;28;52387;-69
2022/01/29 04:34:29;;;;;;;;;11.75;11.00;;;;;-147.17;100.00;50286.94;5033510;28;50888;-69
2022/01/29 04:36:55;;;;;;;;;14.00;13.50;;;;;-147.17;100.00;50283.00;5029675;28;51146;-69
2022/01/29 04:39:20;;;;;;;;;12.25;12.25;;;;;-147.17;100.00;50310.56;5027347;28;51074;-69
2022/01/29 04:41:45;;;;;;;;;14.00;12.75;;;;;-147.17;100.00;50288.91;5033317;28;51069;-69
2022/01/29 04:44:11;;;;;;;;;10.50;10.50;;;;;-147.17;100.00;50249.53;5033334;28;51147;-69
2022/01/29 04:46:36;;;;;;;;;15.00;14.00;;;;;-147.17;100.00;50265.28;5033763;28;50913;-68
2022/01/29 04:49:02;;;;;;;;;15.75;15.00;;;;;-147.17;100.00;50281.03;5026038;28;52163;-68
2022/01/29 04:51:27;;;;;;;;;14.50;14.00;;;;;-147.17;100.00;50267.25;5033248;28;51052;-69
2022/01/29 04:53:53;;;;;;;;;15.00;13.75;;;;;-147.17;100.00;50247.56;5033319;28;51118;-68
2022/01/29 04:56:18;;;;;;;;;12.75;11.50;;;;;-147.17;100.00;50292.84;5032368;28;51268;-69
2022/01/29 04:58:44;;;;;;;;;10.25;9.75;;;;;-147.17;100.00;50296.78;5032398;28;51186;-68
2022/01/29 05:01:09;;;;;;;;;15.25;12.00;;;;;-147.17;100.00;50284.97;5017730;28;51103;-69
2022/01/29 05:03:34;;;;;;;;;11.75;10.75;;;;;-147.17;100.00;50273.16;5016392;28;51251;-69
2022/01/29 05:06:00;;;;;;;;;11.00;10.25;;;;;-147.17;100.00;50212.13;5020509;28;51148;-69
2022/01/29 05:08:26;;;;;;;;;11.00;10.50;;;;;-147.17;100.00;50241.66;5028316;28;51177;-69
2022/01/29 05:10:53;;;;;;;;;11.25;10.75;;;;;-147.17;100.00;50284.97;5020522;28;51095;-68
2022/01/29 05:13:22;;;;;;;;;10.50;10.25;;;;;-147.17;100.00;50265.28;5014038;28;50985;-69
2022/01/29 05:29:14;;;;;;;;;15.00;14.25;;;;;-147.17;100.00;50237.72;5017077;28;51636;-68
2022/01/29 05:31:40;;;;;;;;;14.50;10.50;;;;;-147.17;100.00;50249.53;5018994;28;51125;-69
2022/01/29 05:34:05;;;;;;;;;9.00;9.00;;;;;-147.17;100.00;50235.75;5026347;28;51299;-68
2022/01/29 05:36:31;;;;;;;;;15.75;14.25;;;;;-147.17;100.00;50269.22;5025758;28;51337;-68
2022/01/29 05:38:57;;;;;;;;;11.25;11.25;;;;;-147.17;100.00;50223.94;5033200;28;51130;-68
2022/01/29 05:41:22;;;;;;;;;14.00;11.25;;;;;-147.17;100.00;50218.03;5021853;28;51194;-68
2022/01/29 05:43:49;;;;;;;;;15.50;13.00;;;;;-147.17;100.00;50277.09;5029910;28;51133;-68
2022/01/29 05:46:15;;;;;;;;;12.75;11.50;;;;;-147.17;100.00;50261.34;5030361;28;51299;-68
2022/01/29 05:48:41;;;;;;;;;21.00;16.75;;;;;-147.17;100.00;50229.84;5021543;28;51219;-67
2022/01/29 05:51:07;;;;;;;;;18.25;17.00;;;;;-147.17;100.00;50206.22;5024029;28;51197;-70
2022/01/29 05:53:33;;;;;;;;;15.25;14.25;;;;;-147.17;100.00;50225.91;5030534;28;51297;-69
2022/01/29 05:55:58;;;;;;;;;15.75;14.75;;;;;-147.17;100.00;50243.63;5019168;28;51292;-69
2022/01/29 05:58:24;;;;;;;;;18.00;17.00;;;;;-147.17;100.00;50257.41;5013096;28;51934;-69
2022/01/29 06:00:50;;;;;;;;;14.50;12.25;;;;;-147.17;100.00;50243.63;5021719;28;51107;-67
2022/01/29 06:03:15;;;;;;;;;17.00;16.00;;;;;-147.17;100.00;50245.59;5030454;28;51162;-68
2022/01/29 06:05:40;;;;;;;;;15.00;15.00;;;;;-147.17;100.00;50225.91;5022316;28;51040;-69
2022/01/29 06:08:06;;;;;;;;;12.25;12.00;;;;;-147.17;100.00;50218.03;5012323;28;51055;-68
2022/01/29 06:10:31;;;;;;;;;11.00;11.00;;;;;-147.17;100.00;50225.91;5020973;28;51063;-68
2022/01/29 06:13:00;;;;;;;;;15.00;14.50;;;;;-147.17;100.00;50218.03;5015584;28;51209;-68
2022/01/29 06:15:26;;;;;;;;;15.00;14.25;;;;;-147.17;100.00;50225.91;5027181;28;51132;-67
2022/01/29 06:17:52;;;;;;;;;11.00;11.00;;;;;-147.17;100.00;50231.81;5017995;28;51784;-68
2022/01/29 06:20:17;;;;;;;;;14.75;13.25;;;;;-147.17;100.00;50221.97;5031822;28;51066;-67
2022/01/29 06:22:42;;;;;;;;;14.00;13.75;;;;;-147.17;100.00;50208.19;5028771;28;51165;-68
2022/01/29 06:25:08;;;;;;;;;13.00;13.00;;;;;-147.17;100.00;50257.41;5027039;28;51054;-69
2022/01/29 06:27:34;;;;;;;;;14.25;12.25;;;;;-147.17;100.00;50218.03;5018648;28;51975;-68
2022/01/29 06:29:59;;;;;;;;;15.00;14.00;;;;;-147.17;100.00;50237.72;5019436;28;51133;-69
2022/01/29 06:32:25;;;;;;;;;10.75;10.75;;;;;-147.17;100.00;50233.78;5031957;28;51325;-68
2022/01/29 06:34:50;;;;;;;;;12.75;11.00;;;;;-147.17;100.00;50269.22;5017734;28;51328;-68
2022/01/29 06:37:15;;;;;;;;;16.50;16.50;;;;;-147.17;100.00;50251.50;5022978;28;51076;-68
2022/01/29 06:39:41;;;;;;;;;10.50;9.25;;;;;-147.17;100.00;50257.41;5022718;28;51353;-67
2022/01/29 06:42:06;;;;;;;;;14.00;11.50;;;;;-147.17;100.00;50220.00;5029565;28;51257;-68
2022/01/29 06:44:32;;;;;;;;;12.50;11.00;;;;;-147.17;100.00;50229.84;5021189;28;51060;-68
2022/01/29 06:46:57;;;;;;;;;10.75;10.50;;;;;-147.17;100.00;50249.53;5012243;28;51045;-67
2022/01/29 06:49:22;;;;;;;;;13.00;11.00;;;;;-147.17;100.00;50229.84;5020689;28;51026;-68
2022/01/29 06:51:48;;;;;;;;;11.00;10.00;;;;;-147.17;100.00;50223.94;5024706;28;51141;-68
2022/01/29 06:54:14;;;;;;;;;11.75;11.75;;;;;-147.17;100.00;50257.41;5013011;28;50924;-67
2022/01/29 06:56:39;;;;;;;;;11.00;11.00;;;;;-147.17;100.00;50241.66;5022612;28;51046;-68
2022/01/29 06:59:04;;;;;;;;;9.75;9.00;;;;;-147.17;100.00;50241.66;5025494;28;51251;-68
2022/01/29 07:01:30;;;;;;;;;10.50;9.75;;;;;-147.17;100.00;50253.47;5020809;28;51397;-69
2022/01/29 07:03:55;;;;;;;;;10.50;9.75;;;;;-147.17;100.00;50218.03;5013033;28;51047;-68
2022/01/29 07:06:20;;;;;;;;;11.50;10.75;;;;;-147.17;100.00;50208.19;5013860;28;51388;-70
2022/01/29 07:08:46;;;;;;;;;8.50;8.00;;;;;-147.17;100.00;50212.13;5042874;28;50999;-70
2022/01/29 07:11:11;;;;;;;;;10.50;9.75;;;;;-147.17;100.00;50210.16;5028296;28;51225;-68
2022/01/29 07:13:36;;;;;;;;;10.00;9.50;;;;;-147.17;100.00;50231.81;5012966;28;51172;-68
2022/01/29 07:16:02;;;;;;;;;8.75;8.25;;;;;-147.17;100.00;50245.59;5015740;28;51161;-68
2022/01/29 07:18:27;;;;;;;;;9.75;9.75;;;;;-147.17;100.00;50210.16;5028620;28;51190;-67
2022/01/29 07:20:53;;;;;;;;;10.25;10.00;;;;;-147.17;100.00;50231.81;5026257;28;51163;-67
2022/01/29 07:23:18;;;;;;;;;10.75;10.50;;;;;-147.17;100.00;50223.94;5012271;28;51228;-67
2022/01/29 07:25:43;;;;;;;;;8.50;8.50;;;;;-147.17;100.00;50212.13;5022729;28;52734;-68
2022/01/29 07:28:09;;;;;;;;;11.75;10.00;;;;;-147.17;100.00;50237.72;5026984;28;50922;-69
2022/01/29 07:30:34;;;;;;;;;10.00;9.00;;;;;-147.17;100.00;50229.84;5011632;28;51087;-69
2022/01/29 07:32:59;;;;;;;;;10.67;10.00;;;;;-147.17;100.00;50220.00;5017114;28;50940;-69
2022/01/29 07:35:25;;;;;;;;;8.00;7.00;;;;;-147.17;100.00;50190.47;5011570;28;51685;-69
2022/01/29 07:37:50;;;;;;;;;10.00;10.00;;;;;-147.17;100.00;50208.19;5014033;28;51114;-68
2022/01/29 07:40:15;;;;;;;;;10.67;9.00;;;;;-147.17;100.00;50212.13;5013345;28;51175;-68
2022/01/29 07:42:41;;;;;;;;;6.33;6.00;;;;;-147.17;100.00;50223.94;5021356;28;51313;-68
2022/01/29 07:45:06;;;;;;;;;9.33;8.00;;;;;-147.17;100.00;50227.88;5024330;28;51720;-68
2022/01/29 07:47:33;;;;;;;;;8.00;8.00;;;;;-147.17;100.00;50237.72;5010733;28;51187;-69
2022/01/29 07:49:59;;;;;;;;;9.67;8.67;;;;;-147.17;100.00;50182.59;5028137;28;51293;-69
2022/01/29 07:52:24;;;;;;;;;8.00;6.33;;;;;-147.17;100.00;50221.97;5033214;28;51343;-67
2022/01/29 07:54:50;;;;;;;;;9.00;8.67;;;;;-147.17;100.00;50233.78;5030284;28;50946;-68
2022/01/29 07:57:15;;;;;;;;;8.00;8.00;;;;;-147.17;100.00;50223.94;5023184;28;52703;-67
2022/01/29 07:59:41;;;;;;;;;8.00;7.67;;;;;-147.17;100.00;50208.19;5029628;28;51283;-68
2022/01/29 08:02:07;;;;;;;;;6.33;5.00;;;;;-147.17;100.00;50235.75;5023743;28;51359;-68
2022/01/29 08:04:32;;;;;;;;;10.00;8.67;;;;;-147.17;100.00;50225.91;5030997;28;51174;-68
2022/01/29 08:06:57;;;;;;;;;6.00;4.67;;;;;-147.17;100.00;50227.88;5031917;28;51446;-68
2022/01/29 08:09:23;;;;;;;;;6.33;4.33;;;;;-147.17;100.00;50216.06;5031846;28;51165;-68
2022/01/29 08:11:48;;;;;;;;;5.00;4.33;;;;;-147.17;100.00;50229.84;5022889;28;51063;-68
2022/01/29 08:14:14;;;;;;;;;5.33;5.33;;;;;-147.17;100.00;50255.44;5022597;28;53131;-68
2022/01/29 08:16:39;;;;;;;;;3.00;2.00;;;;;-147.17;100.00;50221.97;5022921;28;51143;-68
2022/01/29 08:19:05;;;;;;;;;3.33;3.33;;;;;-147.17;100.00;50227.88;5018902;28;51349;-68
2022/01/29 08:21:30;;;;;;;;;5.00;4.00;;;;;-147.17;100.00;50241.66;5020875;28;50985;-68
2022/01/29 08:23:55;;;;;;;;;4.00;3.00;;;;;-147.17;100.00;50257.41;5019011;28;52783;-72
2022/01/29 08:26:21;;;;;;;;;3.33;3.00;;;;;-147.17;100.00;50196.38;5017112;28;51123;-73
2022/01/29 08:28:46;;;;;;;;;2.67;2.00;;;;;-147.17;100.00;50229.84;5028452;28;51276;-70
2022/01/29 08:31:11;;;;;;;;;4.00;3.00;;;;;-147.17;100.00;50210.16;5021739;28;51432;-70
2022/01/29 08:33:37;;;;;;;;;3.00;3.00;;;;;-147.17;100.00;50210.16;5023761;28;51898;-70
2022/01/29 08:36:03;;;;;;;;;3.00;3.00;;;;;-147.17;100.00;50233.78;5025777;28;51039;-70
2022/01/29 08:38:29;;;;;;;;;2.00;2.00;;;;;-147.17;100.00;50229.84;5021454;28;51192;-69
2022/01/29 08:40:55;;;;;;;;;2.00;2.00;;;;;-147.17;100.00;50220.00;5019632;28;51086;-69
2022/01/29 08:43:24;;;;;;;;;3.00;2.00;;;;;-147.17;100.00;50218.03;5020094;28;52309;-69
2022/01/29 08:45:50;;;;;;;;;3.00;3.00;;;;;-147.17;100.00;50221.97;5025602;28;51239;-69
2022/01/29 08:48:16;;;;;;;;;3.00;2.00;;;;;-147.17;100.00;50225.91;5024111;28;51153;-69
2022/01/29 08:50:45;;;;;;;;;3.33;3.00;;;;;-147.17;100.00;50239.69;5023641;28;51015;-69
2022/01/29 08:53:11;;;;;;;;;2.00;2.00;;;;;-147.17;100.00;50251.50;5024851;28;51748;-68
2022/01/29 08:55:37;;;;;;;;;2.00;2.00;;;;;-147.17;100.00;50233.78;5027797;28;51231;-69
2022/01/29 08:58:07;;;;;;;;;3.00;3.00;;;;;-147.17;100.00;50237.72;5022915;28;51179;-70
2022/01/29 09:00:34;;;;;;;;;3.00;3.00;;;;;-147.17;100.00;50245.59;5029392;28;50999;-70
2022/01/29 09:02:59;;;;;;;;;4.33;4.33;;;;;-147.17;100.00;50206.22;5022477;28;52113;-71
2022/01/29 09:05:25;;;;;;;;;6.33;6.00;;;;;-147.17;100.00;50237.72;5032070;28;51204;-69
2022/01/29 09:07:50;;;;;;;;;4.00;4.00;;;;;-147.17;100.00;50227.88;5021299;28;51095;-69
2022/01/29 09:10:15;;;;;;;;;4.00;3.33;;;;;-147.17;100.00;50214.09;5028479;28;51288;-69
2022/01/29 09:12:41;;;;;;;;;4.00;4.00;;;;;-147.17;100.00;50239.69;5028528;28;51683;-69
2022/01/29 09:15:07;;;;;;;;;9.00;9.00;;;;;-147.17;100.00;50214.09;5028212;28;51105;-72
2022/01/29 09:17:33;;;;;;;;;5.00;5.00;;;;;-147.17;100.00;50192.44;5024994;28;51294;-72
2022/01/29 09:19:59;;;;;;;;;5.33;4.67;;;;;-147.17;100.00;50247.56;5019237;28;51421;-72
2022/01/29 09:22:24;;;;;;;;;4.00;4.00;;;;;-147.17;100.00;50245.59;5024461;28;51254;-71
2022/01/29 09:24:50;;;;;;;;;4.00;3.00;;;;;-147.17;100.00;50220.00;5024875;28;51165;-72
2022/01/29 09:27:15;;;;;;;;;3.33;3.33;;;;;-147.17;100.00;50225.91;5038703;28;51098;-68
2022/01/29 09:29:40;;;;;;;;;4.00;4.00;;;;;-147.17;100.00;50212.13;5033314;28;51712;-68
2022/01/29 09:32:06;;;;;;;;;3.00;3.00;;;;;-147.17;100.00;50190.47;5035251;28;51331;-68
2022/01/29 09:34:32;;;;;;;;;4.00;4.00;;;;;-147.17;100.00;50235.75;5022145;28;51503;-69
2022/01/29 09:36:57;;;;;;;;;4.67;4.00;;;;;-147.17;100.00;50218.03;5030931;28;51089;-69
2022/01/29 09:39:22;;;;;;;;;2.33;2.33;;;;;-147.17;100.00;50225.91;5028442;28;50829;-68
2022/01/29 09:41:49;;;;;;;;;3.00;3.00;;;;;-147.17;100.00;50247.56;5033572;28;51250;-69
2022/01/29 09:44:14;;;;;;;;;4.00;4.00;;;;;-147.17;100.00;50245.59;5029356;28;51150;-70
2022/01/29 09:46:41;;;;;;;;;2.67;2.67;;;;;-147.17;100.00;50296.78;5017810;28;51381;-62
2022/01/29 09:49:07;;;;;;;;;5.00;5.00;;;;;-147.17;100.00;50259.38;5026167;28;51163;-64
2022/01/29 09:51:33;;;;;;;;;4.00;4.00;;;;;-147.17;100.00;50235.75;5020585;28;51838;-62
2022/01/29 09:53:58;;;;;;;;;3.00;3.00;;;;;-147.17;100.00;50273.16;5012610;28;51342;-62
2022/01/29 09:56:25;;;;;;;;;4.67;4.67;;;;;-147.17;100.00;50284.97;5012923;28;51252;-63
2022/01/29 09:58:50;;;;;;;;;7.33;6.00;;;;;-147.17;100.00;50259.38;5013561;28;51206;-63
2022/01/29 10:01:16;;;;;;;;;4.00;4.00;;;;;-147.17;100.00;50257.41;5026984;28;51134;-62
2022/01/29 10:03:41;;;;;;;;;5.00;4.33;;;;;-147.17;100.00;50263.31;5017416;28;51437;-63
2022/01/29 10:06:13;;;;;;;;;5.00;5.00;;;;;-147.17;100.00;50257.41;5025197;28;51119;-63
2022/01/29 10:08:44;;;;;;;;;4.00;4.00;;;;;-147.17;100.00;50253.47;5019288;28;51161;-63
2022/01/29 10:11:24;;;;;;;;;5.00;4.67;;;;;-147.17;100.00;50259.38;5013709;28;51053;-62
2022/01/29 10:13:51;;;;;;;;;5.00;5.00;;;;;-147.17;100.00;50265.28;5019778;28;51028;-63
2022/01/29 10:16:25;;;;;;;;;5.00;5.00;;;;;-147.17;100.00;50218.03;5022668;28;51216;-63
2022/01/29 10:19:13;;;;;;;;;5.00;3.00;;;;;-147.17;100.00;50273.16;5013648;28;51057;-63
2022/01/29 10:21:41;;;;;;;;;4.67;4.67;;;;;-147.17;100.00;50261.34;5017821;28;52310;-62
2022/01/29 10:24:11;;;;;;;;;5.00;4.00;;;;;-147.17;100.00;50253.47;5022625;28;50963;-63
2022/01/29 10:26:50;;;;;;;;;3.00;3.00;;;;;-147.17;100.00;50247.56;5031939;28;50999;-63
2022/01/29 10:29:26;;;;;;;;;7.67;5.67;;;;;-147.17;100.00;50237.72;5021253;28;51069;-63
2022/01/29 10:31:57;;;;;;;;;5.00;5.00;;;;;-147.17;100.00;50261.34;5030737;28;51568;-63
2022/01/29 10:34:26;;;;;;;;;6.00;6.00;;;;;-147.17;100.00;50245.59;5026691;28;50970;-63
2022/01/29 10:37:14;;;;;;;;;4.67;4.67;;;;;-147.17;100.00;50206.22;5031243;28;51461;-64
2022/01/29 10:39:40;;;;;;;;;8.00;8.00;;;;;-147.17;100.00;50279.06;5031897;28;50919;-63
2022/01/29 10:42:17;;;;;;;;;4.00;4.00;;;;;-147.17;100.00;50221.97;5016849;28;51813;-63
2022/01/29 10:44:45;;;;;;;;;4.67;4.00;;;;;-147.17;100.00;50265.28;5026091;28;50873;-62
2022/01/29 10:47:11;;;;;;;;;11.00;11.00;;;;;-147.17;100.00;50225.91;5012849;28;50890;-62
2022/01/29 10:49:44;;;;;;;;;5.00;4.67;;;;;-147.17;100.00;50231.81;5025675;28;51317;-63
2022/01/29 10:52:10;;;;;;;;;5.00;4.00;;;;;-147.17;100.00;50231.81;5031626;28;51797;-63
2022/01/29 10:54:37;;;;;;;;;6.00;4.00;;;;;-147.17;100.00;50235.75;5031437;28;50989;-64
2022/01/29 10:57:05;;;;;;;;;4.33;4.00;;;;;-147.17;100.00;50261.34;5030407;28;51155;-63
2022/01/29 10:59:33;;;;;;;;;5.00;4.00;;;;;-147.17;100.00;50255.44;5022888;28;51047;-63
2022/01/29 11:02:09;;;;;;;;;5.00;4.33;;;;;-147.17;100.00;50212.13;5012827;28;51194;-64
2022/01/29 11:04:36;;;;;;;;;3.00;3.00;;;;;-147.17;100.00;50279.06;5011506;28;51380;-64
2022/01/29 11:07:07;;;;;;;;;4.00;4.00;;;;;-147.17;100.00;50255.44;5011257;28;51019;-64
2022/01/29 11:09:33;;;;;;;;;4.00;3.67;;;;;-147.17;100.00;50237.72;5013988;28;51098;-63
2022/01/29 11:12:02;;;;;;;;;3.33;3.33;;;;;-147.17;100.00;50235.75;5021599;28;51757;-63
2022/01/29 11:14:29;;;;;;;;;3.00;2.00;;;;;-147.17;100.00;50245.59;5017439;28;51473;-64